Terminal Aerodrome Forecast
Issued by NWS Sterling, VA

Home | Current Version | Previous Version | Text Only | Print | Product List | Glossary On
Versions: 1 2 3 4 5 6 7 8 9 10 11 12 13 14 15 16
636
FTUS41 KLWX 310837 AAB
TAFCHO
TAF AMD
KCHO 310837Z 3109/0106 00000KT 1/4SM FG VV001
     FM311200 06005KT P6SM FEW050 FEW250=

USA.gov is the U.S. government's official web portal to all federal, state and local government web resources and services.